Terminal Aerodrome Forecast
Issued by NWS Des Moines, IA

Home | Current Version | Previous Version | Text Only | Print | Product List | Glossary On
Versions: 1 2 3 4 5 6 7 8 9 10 11 12 13 14 15 16 17 18 19 20 21 22 23 24 25 26
358
FTUS43 KDMX 241128
TAFALO
TAF
KALO 241128Z 2412/2512 18010G16KT P6SM SKC
     FM241600 22012G19KT P6SM SKC
     FM242000 28014G22KT P6SM FEW250
     FM250300 30009G15KT P6SM FEW250=

USA.gov is the U.S. government's official web portal to all federal, state and local government web resources and services.